createdAt,value
2018-07-05T00:00:02.588Z,4
2018-07-05T00:01:12.397Z,4
2018-07-05T00:02:22.527Z,4
2018-07-05T00:03:32.350Z,4
2018-07-05T00:04:42.149Z,4
2018-07-05T00:05:52.225Z,4
2018-07-05T00:07:02.052Z,4
2018-07-05T00:08:11.920Z,4
2018-07-05T00:09:22.005Z,0
2018-07-05T00:10:32.078Z,0
2018-07-05T00:11:41.865Z,0
2018-07-05T00:12:51.952Z,0
2018-07-05T00:14:01.810Z,0
2018-07-05T00:15:11.882Z,0
2018-07-05T00:16:21.726Z,0
2018-07-05T00:17:31.780Z,0
2018-07-05T00:18:41.832Z,0
2018-07-05T00:19:51.966Z,0
2018-07-05T00:21:01.752Z,4
2018-07-05T00:22:11.549Z,4
2018-07-05T00:23:21.630Z,4
2018-07-05T00:24:31.717Z,4
2018-07-05T00:25:41.831Z,4
2018-07-05T00:26:51.910Z,4
2018-07-05T00:28:01.985Z,4
2018-07-05T00:29:11.798Z,0
2018-07-05T00:30:21.589Z,0
2018-07-05T00:31:31.412Z,4
2018-07-05T00:32:41.484Z,4
2018-07-05T00:33:51.298Z,4
2018-07-05T00:35:01.380Z,4
2018-07-05T00:36:10.909Z,4
2018-07-05T00:37:21.050Z,4
2018-07-05T00:38:31.126Z,4
2018-07-05T00:39:41.201Z,4
2018-07-05T00:40:51.008Z,4
2018-07-05T00:42:01.073Z,4
2018-07-05T00:43:10.928Z,8
2018-07-05T00:44:20.727Z,4
2018-07-05T00:45:30.519Z,4
2018-07-05T00:46:40.589Z,8
2018-07-05T00:47:50.392Z,8
2018-07-05T00:49:00.310Z,4
2018-07-05T00:50:09.633Z,8
2018-07-05T00:51:19.689Z,8
2018-07-05T00:52:29.502Z,8
2018-07-05T00:53:39.032Z,8
2018-07-05T00:54:48.603Z,12
2018-07-05T00:55:58.417Z,8
2018-07-05T00:57:08.488Z,12
2018-07-05T00:58:18.548Z,8
2018-07-05T00:59:28.347Z,12
2018-07-05T01:00:37.925Z,12
2018-07-05T01:01:48.001Z,12
2018-07-05T01:02:57.815Z,12
2018-07-05T01:04:07.892Z,16
2018-07-05T01:05:17.454Z,16
2018-07-05T01:06:27.576Z,16
2018-07-05T01:07:37.369Z,16
2018-07-05T01:08:47.182Z,20
2018-07-05T01:09:56.998Z,20
2018-07-05T01:11:07.059Z,24
2018-07-05T01:12:17.175Z,24
2018-07-05T01:13:26.987Z,24
2018-07-05T01:14:37.056Z,28
2018-07-05T01:15:46.584Z,28
2018-07-05T01:16:56.679Z,28
2018-07-05T01:18:06.785Z,32
2018-07-05T01:19:16.862Z,36
2018-07-05T01:20:26.661Z,36
2018-07-05T01:21:36.457Z,40
2018-07-05T01:22:46.262Z,40
2018-07-05T01:23:56.380Z,44
2018-07-05T01:25:06.169Z,44
2018-07-05T01:26:15.965Z,52
2018-07-05T01:27:25.753Z,56
2018-07-05T01:28:35.817Z,60
2018-07-05T01:29:45.388Z,64
2018-07-05T01:30:55.465Z,64
2018-07-05T01:32:05.542Z,68
2018-07-05T01:33:15.073Z,76
2018-07-05T01:34:25.147Z,80
2018-07-05T01:35:35.297Z,84
2018-07-05T01:36:45.361Z,92
2018-07-05T01:37:55.425Z,96
2018-07-05T01:39:05.492Z,100
2018-07-05T01:40:15.297Z,108
2018-07-05T01:41:25.435Z,116
2018-07-05T01:42:34.957Z,120
2018-07-05T01:43:44.755Z,128
2018-07-05T01:44:54.551Z,136
2018-07-05T01:46:04.625Z,144
2018-07-05T01:47:14.744Z,152
2018-07-05T01:48:24.543Z,160
2018-07-05T01:49:34.637Z,168
2018-07-05T01:50:44.428Z,180
2018-07-05T01:51:53.957Z,188
2018-07-05T01:53:03.811Z,196
2018-07-05T01:54:13.617Z,212
2018-07-05T01:55:23.670Z,220
2018-07-05T01:56:33.474Z,228
2018-07-05T01:57:43.551Z,244
2018-07-05T01:58:53.674Z,252
2018-07-05T02:00:03.466Z,264
2018-07-05T02:01:13.542Z,276
2018-07-05T02:02:23.621Z,292
2018-07-05T02:03:33.704Z,304
2018-07-05T02:04:43.548Z,316
2018-07-05T02:05:53.629Z,332
2018-07-05T02:07:03.704Z,344
2018-07-05T02:08:13.244Z,360
2018-07-05T02:09:23.325Z,372
2018-07-05T02:10:33.454Z,388
2018-07-05T02:11:43.249Z,404
2018-07-05T02:12:53.325Z,420
2018-07-05T02:14:03.129Z,436
2018-07-05T02:15:13.177Z,452
2018-07-05T02:16:23.033Z,472
2018-07-05T02:17:33.121Z,492
2018-07-05T02:18:42.924Z,508
2018-07-05T02:19:52.995Z,528
2018-07-05T02:21:03.081Z,548
2018-07-05T02:22:13.198Z,568
2018-07-05T02:23:23.279Z,580
2018-07-05T02:24:33.072Z,600
2018-07-05T02:25:43.145Z,620
2018-07-05T02:26:52.952Z,636
2018-07-05T02:28:02.811Z,656
2018-07-05T02:29:12.617Z,672
2018-07-05T02:30:22.691Z,692
2018-07-05T02:31:32.777Z,708
2018-07-05T02:32:42.594Z,724
2018-07-05T02:33:52.708Z,748
2018-07-05T02:35:02.775Z,768
2018-07-05T02:36:12.578Z,788
2018-07-05T02:37:22.372Z,804
2018-07-05T02:38:32.444Z,824
2018-07-05T02:39:42.294Z,844
2018-07-05T02:40:52.371Z,868
2018-07-05T02:42:02.437Z,892
2018-07-05T02:43:12.495Z,920
2018-07-05T02:44:22.296Z,956
2018-07-05T02:45:32.159Z,992
2018-07-05T02:46:42.237Z,1012
2018-07-05T02:47:52.299Z,1036
2018-07-05T02:49:02.396Z,1060
2018-07-05T02:50:12.199Z,1084
2018-07-05T02:51:22.040Z,1112
2018-07-05T02:52:31.589Z,1132
2018-07-05T02:53:41.700Z,1156
2018-07-05T02:54:51.783Z,1180
2018-07-05T02:56:01.593Z,1200
2018-07-05T02:57:11.440Z,1224
2018-07-05T02:58:21.499Z,1248
2018-07-05T02:59:31.045Z,1268
2018-07-05T03:03:35.708Z,1348
2018-07-05T03:04:45.777Z,1368
2018-07-05T03:05:55.843Z,1388
2018-07-05T03:07:05.715Z,1412
2018-07-05T03:08:15.515Z,1432
2018-07-05T03:09:25.629Z,1456
2018-07-05T03:10:35.447Z,1476
2018-07-05T03:11:44.722Z,1492
2018-07-05T03:12:54.789Z,1512
2018-07-05T03:14:04.892Z,1504
2018-07-05T03:15:14.744Z,1532
2018-07-05T03:16:24.584Z,1560
2018-07-05T03:17:34.388Z,1572
2018-07-05T03:18:44.193Z,1616
2018-07-05T03:19:54.276Z,1640
2018-07-05T03:21:04.142Z,1660
2018-07-05T03:22:13.960Z,1680
2018-07-05T03:23:24.057Z,1700
2018-07-05T03:24:33.584Z,1720
2018-07-05T03:25:43.668Z,1740
2018-07-05T03:26:53.505Z,1760
2018-07-05T03:28:03.585Z,1784
2018-07-05T03:29:13.387Z,1804
2018-07-05T03:30:23.494Z,1820
2018-07-05T03:31:33.572Z,1836
2018-07-05T03:32:43.686Z,1860
2018-07-05T03:33:53.497Z,1872
2018-07-05T03:35:03.563Z,1892
2018-07-05T03:36:13.655Z,1908
2018-07-05T03:37:23.712Z,1928
2018-07-05T03:38:33.833Z,1944
2018-07-05T03:39:43.907Z,1968
2018-07-05T03:40:53.972Z,1980
2018-07-05T03:42:04.063Z,2000
2018-07-05T03:43:14.174Z,2016
2018-07-05T03:44:24.328Z,2036
2018-07-05T03:45:34.408Z,2052
2018-07-05T03:46:44.463Z,2064
2018-07-05T03:47:54.249Z,2084
2018-07-05T03:49:03.772Z,2104
2018-07-05T03:50:13.633Z,2116
2018-07-05T03:51:23.711Z,2132
2018-07-05T03:52:33.249Z,2148
2018-07-05T03:53:43.325Z,2168
2018-07-05T03:54:53.408Z,2180
2018-07-05T03:56:02.716Z,2196
2018-07-05T03:57:11.978Z,2212
2018-07-05T03:58:22.047Z,2228
2018-07-05T03:59:31.833Z,2248
2018-07-05T04:00:41.906Z,2256
2018-07-05T04:01:51.490Z,2268
2018-07-05T04:03:01.569Z,2284
2018-07-05T04:04:11.630Z,2300
2018-07-05T04:05:21.705Z,2312
2018-07-05T04:06:31.760Z,2324
2018-07-05T04:07:41.890Z,2340
2018-07-05T04:08:51.968Z,2352
2018-07-05T04:10:01.837Z,2364
2018-07-05T04:11:10.828Z,2384
2018-07-05T04:12:20.892Z,2384
2018-07-05T04:13:31.016Z,2392
2018-07-05T04:14:40.822Z,2408
2018-07-05T04:15:50.786Z,2412
2018-07-05T04:17:00.445Z,2432
2018-07-05T04:18:09.991Z,2436
2018-07-05T04:19:19.850Z,2452
2018-07-05T04:20:29.651Z,2460
2018-07-05T04:21:39.466Z,2476
2018-07-05T04:22:49.255Z,2488
2018-07-05T04:23:59.128Z,2492
2018-07-05T04:25:09.237Z,2508
2018-07-05T04:26:19.052Z,2520
2018-07-05T04:27:28.863Z,2520
2018-07-05T04:28:38.666Z,2540
2018-07-05T04:29:48.741Z,2544
2018-07-05T04:30:58.313Z,2564
2018-07-05T04:32:07.846Z,2588
2018-07-05T04:33:17.649Z,2596
2018-07-05T04:34:27.180Z,2596
2018-07-05T04:35:37.254Z,2604
2018-07-05T04:36:47.363Z,2624
2018-07-05T04:37:57.436Z,2628
2018-07-05T04:39:06.954Z,2644
2018-07-05T04:40:17.032Z,2652
2018-07-05T04:41:26.838Z,2660
2018-07-05T04:42:37.181Z,2676
2018-07-05T04:43:47.380Z,2696
2018-07-05T04:44:57.442Z,2708
2018-07-05T04:46:06.435Z,2712
2018-07-05T04:47:16.491Z,2712
2018-07-05T04:48:26.328Z,2720
2018-07-05T04:49:36.136Z,2728
2018-07-05T04:50:46.207Z,2752
2018-07-05T04:51:55.739Z,2748
2018-07-05T04:53:05.804Z,2776
2018-07-05T04:54:15.666Z,2788
2018-07-05T04:55:25.584Z,2788
2018-07-05T04:56:35.150Z,2788
2018-07-05T04:57:44.674Z,2796
2018-07-05T04:58:54.759Z,2808
2018-07-05T05:00:04.881Z,2816
2018-07-05T05:01:14.956Z,2840
2018-07-05T05:02:25.194Z,2824
2018-07-05T05:03:35.111Z,2836
2018-07-05T05:04:44.905Z,2836
2018-07-05T05:05:55.030Z,2860
2018-07-05T05:07:04.824Z,2868
2018-07-05T05:08:14.895Z,2872
2018-07-05T05:09:24.427Z,2888
2018-07-05T05:10:33.691Z,2888
2018-07-05T05:11:43.813Z,2912
2018-07-05T05:12:53.880Z,2904
2018-07-05T05:14:03.960Z,2900
2018-07-05T05:15:14.037Z,2916
2018-07-05T05:16:23.835Z,2916
2018-07-05T05:17:33.963Z,2932
2018-07-05T05:18:44.024Z,2928
2018-07-05T05:19:54.117Z,2932
2018-07-05T05:21:04.196Z,2948
2018-07-05T05:22:13.725Z,2956
2018-07-05T05:23:23.577Z,2956
2018-07-05T05:24:33.122Z,2968
2018-07-05T05:25:43.196Z,2972
2018-07-05T05:26:52.991Z,2972
2018-07-05T05:28:02.802Z,3004
2018-07-05T05:29:12.919Z,3016
2018-07-05T05:30:22.982Z,3016
2018-07-05T05:31:33.081Z,3004
2018-07-05T05:32:42.870Z,3024
2018-07-05T05:33:52.936Z,3020
2018-07-05T05:35:02.505Z,3036
2018-07-05T05:36:11.763Z,3048
2018-07-05T05:37:21.850Z,3056
2018-07-05T05:38:31.107Z,3044
2018-07-05T05:39:40.640Z,3040
2018-07-05T05:40:50.505Z,3048
2018-07-05T05:42:00.565Z,3064
2018-07-05T05:43:10.097Z,3064
2018-07-05T05:44:20.171Z,3072
2018-07-05T05:45:30.258Z,3072
2018-07-05T05:46:40.388Z,3072
2018-07-05T05:47:50.122Z,3084
2018-07-05T05:49:00.192Z,3080
2018-07-05T05:50:09.984Z,3096
2018-07-05T05:51:19.519Z,3100
2018-07-05T05:52:29.377Z,3100
2018-07-05T05:53:39.170Z,3108
2018-07-05T05:54:49.247Z,3112
2018-07-05T05:55:59.333Z,3120
2018-07-05T05:57:08.870Z,3136
2018-07-05T05:58:18.461Z,3128
2018-07-05T05:59:28.017Z,3132
2018-07-05T06:00:38.104Z,3132
2018-07-05T06:01:48.289Z,3148
2018-07-05T06:02:58.115Z,3160
2018-07-05T06:04:08.236Z,3172
2018-07-05T06:05:18.325Z,3160
2018-07-05T06:06:28.398Z,3160
2018-07-05T06:07:38.205Z,3180
2018-07-05T06:08:48.286Z,3168
2018-07-05T06:09:58.419Z,3196
2018-07-05T06:11:07.932Z,3176
2018-07-05T06:12:18.013Z,3200
2018-07-05T06:13:27.536Z,3188
2018-07-05T06:14:37.346Z,3204
2018-07-05T06:15:46.930Z,3196
2018-07-05T06:16:56.805Z,3220
2018-07-05T06:18:06.612Z,3216
2018-07-05T06:19:16.693Z,3208
2018-07-05T06:20:26.756Z,3220
2018-07-05T06:21:36.610Z,3216
2018-07-05T06:22:46.678Z,3224
2018-07-05T06:23:56.474Z,3232
2018-07-05T06:25:06.281Z,3240
2018-07-05T06:26:16.096Z,3236
2018-07-05T06:27:25.941Z,3252
2018-07-05T06:28:35.480Z,3248
2018-07-05T06:29:45.271Z,3248
2018-07-05T06:30:55.058Z,3256
2018-07-05T06:32:05.141Z,3260
2018-07-05T06:33:15.006Z,3276
2018-07-05T06:34:25.079Z,3284
2018-07-05T06:35:35.158Z,3284
2018-07-05T06:36:45.220Z,3300
2018-07-05T06:37:55.029Z,3296
2018-07-05T06:39:05.054Z,3320
2018-07-05T06:40:15.424Z,3316
2018-07-05T06:41:25.300Z,3316
2018-07-05T06:42:35.373Z,3324
2018-07-05T06:43:44.904Z,3332
2018-07-05T06:44:55.038Z,3336
2018-07-05T06:46:04.840Z,3348
2018-07-05T06:47:14.370Z,3356
2018-07-05T06:48:24.457Z,3360
2018-07-05T06:49:34.887Z,3372
2018-07-05T06:50:45.021Z,3372
2018-07-05T06:51:54.848Z,3388
2018-07-05T06:53:05.075Z,3380
2018-07-05T06:54:15.091Z,3396
2018-07-05T06:55:25.146Z,3400
2018-07-05T06:56:35.008Z,3400
2018-07-05T06:57:45.090Z,3412
2018-07-05T06:58:55.179Z,3416
2018-07-05T07:00:04.967Z,3416
2018-07-05T07:01:14.792Z,3424
2018-07-05T07:02:24.371Z,3436
2018-07-05T07:03:34.448Z,3444
2018-07-05T07:04:44.521Z,3448
2018-07-05T07:05:54.318Z,3456
2018-07-05T07:07:03.878Z,3460
2018-07-05T07:08:14.016Z,3460
2018-07-05T07:09:23.811Z,3472
2018-07-05T07:10:33.621Z,3480
2018-07-05T07:11:43.415Z,3492
2018-07-05T07:12:53.225Z,3496
2018-07-05T07:14:03.073Z,3492
2018-07-05T07:15:12.880Z,3500
2018-07-05T07:16:22.966Z,3512
2018-07-05T07:17:33.053Z,3504
2018-07-05T07:18:43.122Z,3520
2018-07-05T07:19:53.237Z,3512
2018-07-05T07:21:03.325Z,3520
2018-07-05T07:22:13.132Z,3540
2018-07-05T07:23:22.651Z,3540
2018-07-05T07:24:32.443Z,3552
2018-07-05T07:25:42.570Z,3544
2018-07-05T07:26:52.377Z,3552
2018-07-05T07:28:02.203Z,3556
2018-07-05T07:29:12.289Z,3564
2018-07-05T07:30:22.096Z,3568
2018-07-05T07:31:32.232Z,3572
2018-07-05T07:32:42.367Z,3588
2018-07-05T07:33:52.481Z,3596
2018-07-05T07:35:02.560Z,3604
2018-07-05T07:36:12.098Z,3612
2018-07-05T07:37:22.059Z,3624
2018-07-05T07:38:32.265Z,3628
2018-07-05T07:39:42.349Z,3632
2018-07-05T07:40:52.438Z,3648
2018-07-05T07:42:02.238Z,3644
2018-07-05T07:43:11.838Z,3656
2018-07-05T07:44:21.635Z,3668
2018-07-05T07:45:32.091Z,3672
2018-07-05T07:46:42.186Z,3672
2018-07-05T07:47:51.711Z,3680
2018-07-05T07:49:01.276Z,3692
2018-07-05T07:50:10.801Z,3696
2018-07-05T07:51:21.054Z,3708
2018-07-05T07:52:30.890Z,3716
2018-07-05T07:53:39.887Z,3724
2018-07-05T07:54:49.995Z,3736
2018-07-05T07:56:00.054Z,3756
2018-07-05T07:57:09.868Z,3768
2018-07-05T07:58:20.324Z,3780
2018-07-05T07:59:30.177Z,3800
2018-07-05T08:00:40.036Z,3812
2018-07-05T08:01:49.559Z,3828
2018-07-05T08:02:59.632Z,3848
2018-07-05T08:04:09.728Z,3860
2018-07-05T08:05:19.266Z,3872
2018-07-05T08:06:29.117Z,3888
2018-07-05T08:07:38.933Z,3900
2018-07-05T08:08:48.735Z,3912
2018-07-05T08:09:58.828Z,3932
2018-07-05T08:11:08.652Z,3940
2018-07-05T08:12:18.816Z,3956
2018-07-05T08:13:28.081Z,3968
2018-07-05T08:14:37.871Z,3980
2018-07-05T08:15:47.951Z,3988
2018-07-05T08:16:57.755Z,4000
2018-07-05T08:18:07.362Z,4016
2018-07-05T08:19:17.167Z,4028
2018-07-05T08:20:27.416Z,4052
2018-07-05T08:21:37.617Z,4060
2018-07-05T08:22:47.439Z,4076
2018-07-05T08:23:57.567Z,4092
2018-07-05T08:25:07.372Z,4100
2018-07-05T08:26:17.482Z,4120
2018-07-05T08:27:27.303Z,4132
2018-07-05T08:28:37.113Z,4152
2018-07-05T08:29:47.255Z,4168
2018-07-05T08:30:57.311Z,4180
2018-07-05T08:32:07.107Z,4196
2018-07-05T08:33:16.651Z,4212
2018-07-05T08:34:26.722Z,4228
2018-07-05T08:35:36.859Z,4240
2018-07-05T08:36:46.941Z,4256
2018-07-05T08:37:57.206Z,4276
2018-07-05T08:39:07.008Z,4288
2018-07-05T08:40:17.088Z,4304
2018-07-05T08:41:27.202Z,4324
2018-07-05T08:42:37.010Z,4332
2018-07-05T08:43:47.090Z,4340
2018-07-05T08:44:57.171Z,4356
2018-07-05T08:46:07.262Z,4368
2018-07-05T08:47:17.119Z,4384
2018-07-05T08:48:27.192Z,4392
2018-07-05T08:49:36.718Z,4400
2018-07-05T08:50:46.790Z,4420
2018-07-05T08:51:56.593Z,4412
2018-07-05T08:53:06.442Z,4448
2018-07-05T08:54:16.504Z,4456
2018-07-05T08:55:26.310Z,4452
2018-07-05T08:56:36.406Z,4484
2018-07-05T08:57:46.479Z,4500
2018-07-05T08:58:57.572Z,4520
2018-07-05T09:00:07.644Z,4532
2018-07-05T09:01:17.463Z,4552
2018-07-05T09:02:27.550Z,4568
2018-07-05T09:03:37.634Z,4588
2018-07-05T09:04:47.744Z,4604
2018-07-05T09:05:57.815Z,4624
2018-07-05T09:07:39.725Z,4656
2018-07-05T09:08:49.805Z,4680
2018-07-05T09:09:59.943Z,4692
2018-07-05T09:11:09.761Z,4712
2018-07-05T09:12:19.840Z,4732
2018-07-05T09:13:29.910Z,4752
2018-07-05T09:14:39.980Z,4756
2018-07-05T09:15:49.579Z,4772
2018-07-05T09:16:59.099Z,4792
2018-07-05T09:18:09.749Z,4808
2018-07-05T09:19:19.563Z,4816
2018-07-05T09:20:29.105Z,4828
2018-07-05T09:21:39.242Z,4844
2018-07-05T09:22:49.036Z,4856
2018-07-05T09:23:58.569Z,4868
2018-07-05T09:25:08.643Z,4880
2018-07-05T09:26:18.729Z,4896
2018-07-05T09:27:28.327Z,4896
2018-07-05T09:28:38.129Z,4916
2018-07-05T09:29:47.930Z,4920
2018-07-05T09:30:57.734Z,4872
2018-07-05T09:32:07.030Z,4932
2018-07-05T09:33:17.155Z,4944
2018-07-05T09:34:27.237Z,4952
2018-07-05T09:35:37.042Z,4968
2018-07-05T09:36:47.120Z,4972
2018-07-05T09:37:56.928Z,4988
2018-07-05T09:39:06.248Z,5000
2018-07-05T09:40:16.059Z,5012
2018-07-05T09:41:25.877Z,5020
2018-07-05T09:42:35.686Z,5024
2018-07-05T09:43:45.765Z,5036
2018-07-05T09:44:55.890Z,5040
2018-07-05T09:46:05.434Z,5056
2018-07-05T09:47:15.242Z,5064
2018-07-05T09:48:25.320Z,5076
2018-07-05T09:49:35.110Z,5088
2018-07-05T09:50:44.956Z,5104
2018-07-05T09:51:54.764Z,5112
2018-07-05T09:53:04.308Z,5128
2018-07-05T09:54:14.110Z,5140
2018-07-05T09:55:24.180Z,5148
2018-07-05T09:56:34.043Z,5160
2018-07-05T09:57:44.116Z,5180
2018-07-05T09:58:54.188Z,5196
2018-07-05T10:00:04.009Z,5208
2018-07-05T10:01:13.829Z,5224
2018-07-05T10:02:23.952Z,5236
2018-07-05T10:03:34.127Z,5260
2018-07-05T10:04:44.144Z,5276
2018-07-05T10:05:54.225Z,5292
2018-07-05T10:07:04.298Z,5316
2018-07-05T10:08:14.160Z,5336
2018-07-05T10:09:23.417Z,5352
2018-07-05T10:10:33.339Z,5364
2018-07-05T10:11:42.881Z,5376
2018-07-05T10:12:52.699Z,5396
2018-07-05T10:14:02.326Z,5408
2018-07-05T10:15:12.126Z,5424
2018-07-05T10:16:22.222Z,5436
2018-07-05T10:17:32.286Z,5452
2018-07-05T10:18:42.098Z,5464
2018-07-05T10:19:51.969Z,5476
2018-07-05T10:21:02.051Z,5492
2018-07-05T10:22:11.599Z,5504
2018-07-05T10:23:21.411Z,5520
2018-07-05T10:24:30.956Z,5536
2018-07-05T10:25:40.556Z,5548
2018-07-05T10:26:50.478Z,5564
2018-07-05T10:28:00.324Z,5572
2018-07-05T10:29:10.413Z,5588
2018-07-05T10:30:20.511Z,5596
2018-07-05T10:31:30.363Z,5616
2018-07-05T10:32:40.182Z,5636
2018-07-05T10:33:50.280Z,5656
2018-07-05T10:34:59.804Z,5676
2018-07-05T10:36:09.078Z,5696
2018-07-05T10:37:18.935Z,5712
2018-07-05T10:38:28.735Z,5732
2018-07-05T10:39:38.695Z,5752
2018-07-05T10:40:48.854Z,5768
2018-07-05T10:41:58.656Z,5784
2018-07-05T10:43:08.782Z,5804
2018-07-05T10:44:18.863Z,5816
2018-07-05T10:45:28.407Z,5832
2018-07-05T10:46:37.932Z,5848
2018-07-05T10:47:47.722Z,5864
2018-07-05T10:48:57.855Z,5876
2018-07-05T10:50:07.658Z,5888
2018-07-05T10:51:17.721Z,5908
2018-07-05T10:52:27.512Z,5928
2018-07-05T10:53:37.569Z,5944
2018-07-05T10:54:47.166Z,5964
2018-07-05T10:55:56.993Z,5980
2018-07-05T10:57:06.812Z,6000
2018-07-05T10:58:16.613Z,6016
2018-07-05T10:59:26.703Z,6036
2018-07-05T11:00:36.564Z,6052
2018-07-05T11:01:46.633Z,6068
2018-07-05T11:02:56.235Z,6092
2018-07-05T11:04:06.316Z,6108
2018-07-05T11:05:15.293Z,6124
2018-07-05T11:06:25.137Z,6156
2018-07-05T11:07:35.055Z,6172
2018-07-05T11:08:44.876Z,6188
2018-07-05T11:09:54.947Z,6204
2018-07-05T11:11:04.480Z,6220
2018-07-05T11:12:14.613Z,6244
2018-07-05T11:13:24.677Z,6268
2018-07-05T11:14:34.601Z,6288
2018-07-05T11:15:44.734Z,6312
2018-07-05T11:16:54.832Z,6344
2018-07-05T11:18:04.434Z,6380
2018-07-05T11:19:14.231Z,6412
2018-07-05T11:20:24.036Z,6448
2018-07-05T11:21:33.848Z,6492
2018-07-05T11:22:43.101Z,6528
2018-07-05T11:23:52.956Z,6552
2018-07-05T11:25:02.480Z,6576
2018-07-05T11:26:12.297Z,6608
2018-07-05T11:27:22.122Z,6632
2018-07-05T11:28:31.945Z,6660
2018-07-05T11:29:41.811Z,6692
2018-07-05T11:30:51.355Z,6720
2018-07-05T11:32:01.187Z,6748
2018-07-05T11:33:10.438Z,6816
2018-07-05T11:34:20.512Z,6888
2018-07-05T11:35:30.646Z,6940
2018-07-05T11:36:40.437Z,6988
2018-07-05T11:37:50.492Z,7136
2018-07-05T11:39:00.558Z,7568
2018-07-05T11:40:10.375Z,8504
2018-07-05T11:41:20.507Z,14664
2018-07-05T11:42:30.496Z,65664
2018-07-05T11:43:40.473Z,92096
2018-07-05T11:44:50.556Z,94336
2018-07-05T11:46:00.636Z,93216
2018-07-05T11:47:10.830Z,90048
2018-07-05T11:48:20.926Z,90848
2018-07-05T11:49:31.031Z,89824
2018-07-05T11:50:40.861Z,93568
2018-07-05T11:51:50.682Z,91808
2018-07-05T11:53:00.818Z,95168
2018-07-05T11:54:10.627Z,97888
2018-07-05T11:55:20.702Z,95584
2018-07-05T11:56:30.761Z,99168
2018-07-05T11:57:40.849Z,88064
2018-07-05T11:58:50.651Z,88128
2018-07-05T12:00:00.453Z,91616
2018-07-05T12:01:10.543Z,93376
2018-07-05T12:02:20.103Z,92704
2018-07-05T12:03:29.924Z,89376
2018-07-05T12:04:39.778Z,90880
2018-07-05T12:05:49.876Z,87968
2018-07-05T12:06:59.152Z,87296
2018-07-05T12:08:08.975Z,88896
2018-07-05T12:09:19.059Z,87520
2018-07-05T12:10:29.191Z,87520
2018-07-05T12:11:39.288Z,89664
2018-07-05T12:12:49.097Z,90752
2018-07-05T12:13:59.176Z,90816
2018-07-05T12:15:08.996Z,92640
2018-07-05T12:16:18.603Z,91808
2018-07-05T12:17:28.442Z,81696
2018-07-05T12:18:38.458Z,78624
2018-07-05T12:19:48.553Z,77184
2018-07-05T12:20:58.644Z,77888
2018-07-05T12:22:08.532Z,75680
2018-07-05T12:23:18.335Z,80960
2018-07-05T12:24:27.992Z,86240
2018-07-05T12:25:38.094Z,88448
2018-07-05T12:26:47.905Z,90592
2018-07-05T12:27:57.763Z,94080
2018-07-05T12:29:07.709Z,92832
2018-07-05T12:30:17.867Z,88864
2018-07-05T12:31:27.425Z,86720
2018-07-05T12:32:37.513Z,86816
2018-07-05T12:33:47.491Z,83136
2018-07-05T12:34:57.332Z,76800
2018-07-05T12:36:07.167Z,77696
2018-07-05T12:37:17.252Z,72192
2018-07-05T12:38:27.334Z,68640
2018-07-05T12:39:37.346Z,68992
2018-07-05T12:40:47.175Z,73760
2018-07-05T12:41:57.272Z,79040
2018-07-05T12:43:07.088Z,83200
2018-07-05T12:44:16.912Z,87040
2018-07-05T12:45:26.785Z,87360
2018-07-05T12:46:36.339Z,87424
2018-07-05T12:47:45.605Z,86240
2018-07-05T12:48:55.694Z,86912
2018-07-05T12:50:05.507Z,86112
2018-07-05T12:51:15.373Z,82048
2018-07-05T12:52:25.457Z,85312
2018-07-05T12:53:35.300Z,86208
2018-07-05T12:54:45.407Z,88800
2018-07-05T12:55:55.231Z,92448
2018-07-05T12:57:05.096Z,93024
2018-07-05T12:58:15.178Z,88512
2018-07-05T12:59:25.059Z,89312
2018-07-05T13:00:34.329Z,92512
2018-07-05T13:01:44.156Z,87936
2018-07-05T13:02:54.318Z,89248
2018-07-05T13:04:04.474Z,91392
2018-07-05T13:05:14.487Z,90592
2018-07-05T13:06:24.565Z,87904
2018-07-05T13:07:34.679Z,88256
2018-07-05T13:08:44.815Z,91968
2018-07-05T13:09:54.908Z,90944
2018-07-05T13:11:04.720Z,92160
2018-07-05T13:12:14.805Z,92224
2018-07-05T13:13:24.911Z,91040
2018-07-05T13:14:34.775Z,93184
2018-07-05T13:15:44.871Z,93888
2018-07-05T13:16:54.961Z,91712
2018-07-05T13:18:04.801Z,87552
2018-07-05T13:19:14.622Z,85312
2018-07-05T13:20:24.753Z,83488
2018-07-05T13:21:34.579Z,85600
2018-07-05T13:22:44.685Z,85504
2018-07-05T13:23:54.241Z,89760
2018-07-05T13:25:04.080Z,90048
2018-07-05T13:26:14.205Z,88704
2018-07-05T13:27:24.023Z,87680
2018-07-05T13:28:34.125Z,86144
2018-07-05T13:29:43.948Z,88608
2018-07-05T13:30:53.495Z,88608
2018-07-05T13:32:02.843Z,91744
2018-07-05T13:33:13.001Z,90080
2018-07-05T13:34:23.095Z,80960
2018-07-05T13:35:33.193Z,78784
2018-07-05T13:36:43.020Z,80320
2018-07-05T13:37:52.077Z,76576
2018-07-05T13:39:01.916Z,77600
2018-07-05T13:40:11.767Z,78816
2018-07-05T13:41:21.592Z,80992
2018-07-05T13:42:31.404Z,86048
2018-07-05T13:43:41.531Z,87840
2018-07-05T13:44:51.611Z,91968
2018-07-05T13:46:01.160Z,90944
2018-07-05T13:47:11.478Z,89280
2018-07-05T13:48:21.088Z,88352
2018-07-05T13:49:30.695Z,90176
2018-07-05T13:50:40.793Z,92352
2018-07-05T13:51:50.354Z,92800
2018-07-05T13:53:00.198Z,98816
2018-07-05T13:54:09.667Z,105952
2018-07-05T13:55:19.531Z,102560
2018-07-05T13:56:29.632Z,91392
2018-07-05T13:57:39.453Z,90272
2018-07-05T13:58:49.562Z,89824
2018-07-05T13:59:59.658Z,85120
2018-07-05T14:01:09.248Z,88992
2018-07-05T14:02:19.339Z,88288
2018-07-05T14:03:29.491Z,91712
2018-07-05T14:04:39.659Z,90144
2018-07-05T14:05:49.755Z,77536
2018-07-05T14:06:59.881Z,85696
2018-07-05T14:08:09.449Z,93952
2018-07-05T14:09:19.265Z,91072
2018-07-05T14:10:29.365Z,90464
2018-07-05T14:11:39.203Z,87584
2018-07-05T14:12:49.351Z,83424
2018-07-05T14:13:59.159Z,78656
2018-07-05T14:15:08.975Z,84480
2018-07-05T14:16:19.052Z,83552
2018-07-05T14:17:29.147Z,75808
2018-07-05T14:18:39.298Z,80832
2018-07-05T14:19:49.396Z,86272
2018-07-05T14:20:59.223Z,83520
2018-07-05T14:22:08.781Z,84064
2018-07-05T14:23:18.584Z,81504
2018-07-05T14:24:28.195Z,73696
2018-07-05T14:25:38.018Z,78816
2018-07-05T14:26:47.836Z,80896
2018-07-05T14:27:57.921Z,81600
2018-07-05T14:29:08.008Z,82848
2018-07-05T14:30:17.635Z,84352
2018-07-05T14:31:28.271Z,82656
2018-07-05T14:32:38.591Z,81376
2018-07-05T14:33:48.422Z,81120
2018-07-05T14:34:58.523Z,79168
2018-07-05T14:36:08.655Z,76704
2018-07-05T14:37:18.748Z,73248
2018-07-05T14:38:28.581Z,74976
2018-07-05T14:39:38.660Z,77856
2018-07-05T14:40:48.754Z,79776
2018-07-05T14:41:58.910Z,75840
2018-07-05T14:43:08.733Z,77440
2018-07-05T14:44:18.853Z,81984
2018-07-05T14:45:28.678Z,80384
2018-07-05T14:46:38.768Z,80736
2018-07-05T14:47:48.623Z,77184
2018-07-05T14:48:58.448Z,78848
2018-07-05T14:50:08.260Z,79840
2018-07-05T14:51:18.084Z,76160
2018-07-05T14:52:28.430Z,75392
2018-07-05T14:53:38.311Z,70944
2018-07-05T14:54:48.151Z,71776
2018-07-05T14:55:58.249Z,69376
2018-07-05T14:57:07.793Z,68160
2018-07-05T14:58:17.356Z,70464
2018-07-05T14:59:26.964Z,79968
2018-07-05T15:00:37.052Z,93152
2018-07-05T15:01:46.968Z,94816
2018-07-05T15:02:57.161Z,78560
2018-07-05T15:04:07.040Z,57408
2018-07-05T15:05:17.281Z,46880
2018-07-05T15:06:27.121Z,44992
2018-07-05T15:07:36.939Z,44704
2018-07-05T15:08:46.767Z,45440
2018-07-05T15:09:56.607Z,47392
2018-07-05T15:11:07.123Z,48384
2018-07-05T15:12:16.943Z,48672
2018-07-05T15:13:27.020Z,48160
2018-07-05T15:14:37.102Z,50816
2018-07-05T15:15:47.208Z,55456
2018-07-05T15:16:57.360Z,63680
2018-07-05T15:18:07.184Z,71936
2018-07-05T15:19:17.324Z,70816
2018-07-05T15:20:27.402Z,66656
2018-07-05T15:21:37.493Z,68736
2018-07-05T15:22:47.655Z,69920
2018-07-05T15:23:57.467Z,68992
2018-07-05T15:25:07.552Z,72864
2018-07-05T15:26:17.117Z,77600
2018-07-05T15:27:26.920Z,79296
2018-07-05T15:28:37.052Z,77248
2018-07-05T15:29:46.870Z,74528
2018-07-05T15:30:56.966Z,77600
2018-07-05T15:32:06.778Z,80192
2018-07-05T15:33:16.593Z,83008
2018-07-05T15:34:26.739Z,82656
2018-07-05T15:35:36.834Z,84192